Time;durP1;ratioP1;P1;durP2;ratioP2;P2;SDS_P1;SDS_P2;PMS_P1;PMS_P2;Temp;Humidity;BMP_temperature;BMP_pressure;BME280_temperature;BME280_humidity;BME280_pressure;Samples;Min_cycle;Max_cycle;Signal;HPM_P1;HPM_P2
2023/03/18 00:02:13;;;;;;;0.80;0.60;;;10.80;99.90;;;;;;5045178;28;20062;-77
2023/03/18 00:04:39;;;;;;;1.27;0.70;;;10.80;99.90;;;;;;5060935;28;20191;-76
2023/03/18 00:07:07;;;;;;;1.35;0.75;;;10.80;99.90;;;;;;5060106;28;20056;-76
2023/03/18 00:09:33;;;;;;;1.55;1.02;;;10.80;99.90;;;;;;5059319;28;20756;-77
2023/03/18 00:12:00;;;;;;;1.02;0.70;;;10.70;99.90;;;;;;5042669;28;20048;-77
2023/03/18 00:14:27;;;;;;;1.17;0.95;;;10.70;99.90;;;;;;5078175;28;20052;-81
2023/03/18 00:16:54;;;;;;;1.38;0.90;;;10.70;99.90;;;;;;5061011;28;20131;-80
2023/03/18 00:19:23;;;;;;;1.08;0.80;;;10.60;99.90;;;;;;5042809;28;20244;-80
2023/03/18 00:21:50;;;;;;;1.02;0.80;;;10.60;99.90;;;;;;5069334;28;20043;-79
2023/03/18 00:24:17;;;;;;;1.33;0.70;;;10.60;99.90;;;;;;5066104;28;20059;-79
2023/03/18 00:26:44;;;;;;;0.82;0.70;;;10.60;99.90;;;;;;5035850;28;20350;-80
2023/03/18 00:29:10;;;;;;;1.20;0.80;;;10.60;99.90;;;;;;5044345;28;20225;-80
2023/03/18 00:31:37;;;;;;;1.42;0.82;;;10.60;99.90;;;;;;5041030;28;20143;-80
2023/03/18 00:34:04;;;;;;;1.70;1.00;;;10.50;99.90;;;;;;5019714;28;20388;-80
2023/03/18 00:36:31;;;;;;;1.75;0.82;;;10.50;99.90;;;;;;5075332;28;20430;-80
2023/03/18 00:39:02;;;;;;;1.23;0.80;;;10.40;99.90;;;;;;5058399;28;20139;-80
2023/03/18 00:41:31;;;;;;;1.40;1.00;;;10.30;99.90;;;;;;5073831;28;20063;-80
2023/03/18 00:43:58;;;;;;;1.00;0.55;;;10.20;99.90;;;;;;5068129;28;20055;-79
2023/03/18 00:46:31;;;;;;;0.80;0.70;;;10.10;99.90;;;;;;5034026;28;20055;-80
2023/03/18 00:48:59;;;;;;;1.15;0.80;;;10.00;99.90;;;;;;5064010;28;20055;-80
2023/03/18 00:51:30;;;;;;;1.45;1.05;;;10.00;99.90;;;;;;5054806;28;20160;-81
2023/03/18 00:53:58;;;;;;;1.30;0.80;;;9.90;99.90;;;;;;5052248;28;20051;-80
2023/03/18 00:56:27;;;;;;;0.85;0.60;;;9.90;99.90;;;;;;5058684;28;20059;-80
2023/03/18 00:58:54;;;;;;;1.00;0.75;;;9.90;99.90;;;;;;5047215;28;20056;-80
2023/03/18 01:01:21;;;;;;;1.13;0.80;;;9.80;99.90;;;;;;5054594;28;20746;-79
2023/03/18 01:03:49;;;;;;;0.80;0.70;;;9.80;99.90;;;;;;5052979;28;20056;-80
2023/03/18 01:06:21;;;;;;;1.13;0.70;;;9.70;99.90;;;;;;5058979;28;20054;-80
2023/03/18 01:08:48;;;;;;;1.20;0.77;;;9.70;99.90;;;;;;5059848;28;20043;-80
2023/03/18 01:11:16;;;;;;;0.82;0.65;;;9.70;99.90;;;;;;5046693;28;20044;-80
2023/03/18 01:13:43;;;;;;;1.55;0.68;;;9.70;99.90;;;;;;5027985;28;20248;-80
2023/03/18 01:16:10;;;;;;;1.52;0.93;;;9.60;99.90;;;;;;5044771;28;20403;-80
2023/03/18 01:18:37;;;;;;;1.73;0.75;;;9.60;99.90;;;;;;5060576;28;20453;-80
2023/03/18 01:21:04;;;;;;;1.10;0.68;;;9.60;99.90;;;;;;5031408;28;20128;-80
2023/03/18 01:23:31;;;;;;;1.20;0.70;;;9.50;99.90;;;;;;5030494;28;20201;-80
2023/03/18 01:25:58;;;;;;;0.85;0.50;;;9.60;99.90;;;;;;5046848;28;20055;-81
2023/03/18 01:28:26;;;;;;;1.15;0.73;;;9.50;99.90;;;;;;5065428;28;20066;-81
2023/03/18 01:30:54;;;;;;;1.27;0.80;;;9.50;99.90;;;;;;5045622;28;20137;-81
2023/03/18 01:33:21;;;;;;;0.95;0.70;;;9.50;99.90;;;;;;5034987;28;20761;-80
2023/03/18 01:35:55;;;;;;;1.40;0.55;;;9.50;99.90;;;;;;5065682;28;20140;-80
2023/03/18 01:38:23;;;;;;;0.68;0.60;;;9.50;99.90;;;;;;5047712;28;20380;-80
2023/03/18 01:40:49;;;;;;;0.65;0.65;;;9.40;99.90;;;;;;5044308;28;20044;-80
2023/03/18 01:43:19;;;;;;;1.13;0.70;;;9.40;99.90;;;;;;5063580;28;20348;-79
2023/03/18 01:45:52;;;;;;;0.50;0.50;;;9.50;99.90;;;;;;5048728;28;20047;-80
2023/03/18 01:48:22;;;;;;;1.02;0.90;;;9.40;99.90;;;;;;5065033;28;20248;-80
2023/03/18 01:50:58;;;;;;;1.35;1.00;;;9.50;99.90;;;;;;5048767;28;20081;-79
2023/03/18 01:53:34;;;;;;;1.05;0.50;;;9.50;99.90;;;;;;5046549;28;20048;-80
2023/03/18 01:56:02;;;;;;;1.40;0.75;;;9.50;99.90;;;;;;5049117;28;20093;-80
2023/03/18 01:58:36;;;;;;;0.77;0.68;;;9.60;99.90;;;;;;5065126;28;20090;-80
2023/03/18 02:01:28;;;;;;;1.58;0.70;;;9.60;99.90;;;;;;5045957;28;20048;-81
2023/03/18 02:03:55;;;;;;;1.27;0.70;;;9.70;99.90;;;;;;5051365;28;20525;-80
2023/03/18 02:06:23;;;;;;;1.67;0.95;;;9.80;99.90;;;;;;5046203;28;20044;-80
2023/03/18 02:08:49;;;;;;;1.70;0.80;;;9.80;99.90;;;;;;5047616;28;20467;-81
2023/03/18 02:11:16;;;;;;;1.90;0.85;;;9.90;99.90;;;;;;5080648;28;20058;-80
2023/03/18 02:13:44;;;;;;;1.98;0.90;;;9.90;99.90;;;;;;5080203;28;20155;-81
2023/03/18 02:16:24;;;;;;;2.47;1.10;;;10.00;99.90;;;;;;5048322;28;20047;-81
2023/03/18 02:18:55;;;;;;;1.83;0.85;;;10.00;99.90;;;;;;5065339;28;20051;-80
2023/03/18 02:21:25;;;;;;;1.95;0.77;;;10.00;99.90;;;;;;5044258;28;20048;-80
2023/03/18 02:24:32;;;;;;;1.50;0.88;;;10.10;99.90;;;;;;5072140;28;20675;-80
2023/03/18 02:27:02;;;;;;;3.15;1.15;;;10.10;99.90;;;;;;5047142;28;20402;-81
2023/03/18 02:29:30;;;;;;;1.42;1.10;;;10.10;99.90;;;;;;5048334;28;20052;-80
2023/03/18 02:32:00;;;;;;;1.73;0.85;;;10.00;99.90;;;;;;5043104;28;20052;-80
2023/03/18 02:34:26;;;;;;;2.03;0.80;;;10.00;99.90;;;;;;5031372;28;20093;-80
2023/03/18 02:36:54;;;;;;;2.72;1.17;;;10.00;99.90;;;;;;5034097;28;20044;-80
2023/03/18 02:39:20;;;;;;;2.45;1.55;;;10.00;99.90;;;;;;5067704;28;20054;-81
2023/03/18 02:41:48;;;;;;;1.38;1.08;;;10.00;99.90;;;;;;5067592;28;20047;-80
2023/03/18 02:44:15;;;;;;;1.35;0.90;;;10.10;99.90;;;;;;5086095;28;20060;-81
2023/03/18 02:46:50;;;;;;;1.10;0.90;;;10.10;99.90;;;;;;5051492;28;20048;-81
2023/03/18 02:49:17;;;;;;;1.35;1.00;;;10.10;99.90;;;;;;5035232;28;20051;-80
2023/03/18 02:51:45;;;;;;;0.98;0.85;;;10.20;99.90;;;;;;5050283;28;20426;-81
2023/03/18 02:54:14;;;;;;;1.42;1.00;;;10.20;99.90;;;;;;5065454;28;20048;-80
2023/03/18 02:56:42;;;;;;;1.65;1.30;;;10.30;99.90;;;;;;5047677;28;20109;-80
2023/03/18 02:59:09;;;;;;;1.27;1.00;;;10.30;99.90;;;;;;5051893;28;20052;-80
2023/03/18 03:01:36;;;;;;;0.80;0.65;;;10.30;99.90;;;;;;5084955;28;20507;-80
2023/03/18 03:04:05;;;;;;;2.92;1.10;;;10.40;99.90;;;;;;5050880;28;20044;-80
2023/03/18 03:06:33;;;;;;;1.48;0.90;;;10.40;99.90;;;;;;5050024;28;20052;-80
2023/03/18 03:09:01;;;;;;;2.10;1.02;;;10.40;99.90;;;;;;5033839;28;20582;-80
2023/03/18 03:11:28;;;;;;;1.80;1.00;;;10.40;99.90;;;;;;5066789;28;20051;-80
2023/03/18 03:13:55;;;;;;;1.98;1.08;;;10.30;99.90;;;;;;5049412;28;20055;-80
2023/03/18 03:16:22;;;;;;;1.15;0.82;;;10.30;99.90;;;;;;5049678;28;20131;-80
2023/03/18 03:18:50;;;;;;;1.40;1.00;;;10.20;99.90;;;;;;5051150;28;20066;-80
2023/03/18 03:21:17;;;;;;;1.25;1.00;;;10.20;99.90;;;;;;5036264;28;20131;-80
2023/03/18 03:23:44;;;;;;;1.25;0.90;;;10.20;99.90;;;;;;5049617;28;20050;-80
2023/03/18 03:26:11;;;;;;;1.42;0.90;;;10.20;99.90;;;;;;5048648;28;20048;-80
2023/03/18 03:28:37;;;;;;;1.70;0.90;;;10.20;99.90;;;;;;5066775;28;20054;-80
2023/03/18 03:31:05;;;;;;;1.48;0.90;;;10.20;99.90;;;;;;5084526;28;20048;-79
2023/03/18 03:33:32;;;;;;;2.25;1.27;;;10.20;99.90;;;;;;5034450;28;20044;-80
2023/03/18 03:35:59;;;;;;;1.42;1.15;;;10.20;99.90;;;;;;5049566;28;20422;-80
2023/03/18 03:38:26;;;;;;;1.60;0.75;;;10.30;99.90;;;;;;5043512;28;20060;-81
2023/03/18 03:40:53;;;;;;;1.80;1.10;;;10.30;99.90;;;;;;5042048;28;20162;-80
2023/03/18 03:43:20;;;;;;;1.65;1.00;;;10.30;99.90;;;;;;5074514;28;20462;-80
2023/03/18 03:45:47;;;;;;;1.65;1.25;;;10.20;99.90;;;;;;5082533;28;20468;-81
2023/03/18 03:48:14;;;;;;;1.55;0.95;;;10.20;99.90;;;;;;5064563;28;20083;-80
2023/03/18 03:50:41;;;;;;;1.90;1.10;;;10.20;99.90;;;;;;5061246;28;20482;-80
2023/03/18 03:53:09;;;;;;;0.93;0.75;;;10.10;99.90;;;;;;5044086;28;20056;-79
2023/03/18 03:55:36;;;;;;;2.00;0.80;;;10.10;99.90;;;;;;5048383;28;20048;-79
2023/03/18 03:58:03;;;;;;;2.35;1.10;;;10.00;99.90;;;;;;5079917;28;20065;-79
2023/03/18 04:00:31;;;;;;;1.77;1.00;;;10.00;99.90;;;;;;5063621;28;20047;-80
2023/03/18 04:02:59;;;;;;;2.13;1.00;;;10.00;99.90;;;;;;5050247;28;20073;-80
2023/03/18 04:05:26;;;;;;;1.65;0.90;;;10.00;99.90;;;;;;5082260;28;20048;-80
2023/03/18 04:07:54;;;;;;;1.10;0.80;;;10.00;99.90;;;;;;5081382;28;20130;-80
2023/03/18 04:10:21;;;;;;;0.70;0.70;;;10.10;99.90;;;;;;5058451;28;21645;-80
2023/03/18 04:12:48;;;;;;;1.10;0.80;;;10.20;99.90;;;;;;5081700;28;20044;-80
2023/03/18 04:15:16;;;;;;;1.15;0.80;;;10.20;99.90;;;;;;5092642;28;20048;-80
2023/03/18 04:17:43;;;;;;;1.10;0.80;;;10.30;99.90;;;;;;5083308;28;20183;-80
2023/03/18 04:20:10;;;;;;;0.80;0.80;;;10.30;99.90;;;;;;5058517;28;20517;-80
2023/03/18 04:22:37;;;;;;;1.08;0.73;;;10.30;99.90;;;;;;5072832;28;20173;-80
2023/03/18 04:25:04;;;;;;;0.60;0.50;;;10.40;99.90;;;;;;5082993;28;20097;-80
2023/03/18 04:27:32;;;;;;;1.38;0.77;;;10.40;99.90;;;;;;5081524;28;20083;-80
2023/03/18 04:29:59;;;;;;;1.38;0.98;;;10.50;99.90;;;;;;5081170;28;20238;-80
2023/03/18 04:32:26;;;;;;;1.50;0.80;;;10.50;99.90;;;;;;5062282;28;20058;-81
2023/03/18 04:34:53;;;;;;;0.82;0.70;;;10.50;99.90;;;;;;5065302;28;20052;-80
2023/03/18 04:37:21;;;;;;;1.00;0.80;;;10.50;99.90;;;;;;5072724;28;20893;-80
2023/03/18 04:39:48;;;;;;;1.48;0.90;;;10.50;99.90;;;;;;5048819;28;20511;-80
2023/03/18 04:42:16;;;;;;;1.17;0.80;;;10.60;99.90;;;;;;5032314;28;20058;-81
2023/03/18 04:44:44;;;;;;;1.08;0.60;;;10.60;99.90;;;;;;5049878;28;20067;-81
2023/03/18 04:47:11;;;;;;;1.52;0.70;;;10.70;99.90;;;;;;5049523;28;20417;-80
2023/03/18 04:49:39;;;;;;;2.25;1.05;;;10.70;99.90;;;;;;5050322;28;20148;-81
2023/03/18 04:52:06;;;;;;;1.58;0.65;;;10.70;99.90;;;;;;5048823;28;20056;-80
2023/03/18 04:54:33;;;;;;;1.38;0.65;;;10.70;99.90;;;;;;5065327;28;20127;-80
2023/03/18 04:57:00;;;;;;;1.02;0.88;;;10.70;99.90;;;;;;5056448;28;20476;-81
2023/03/18 04:59:27;;;;;;;0.80;0.70;;;10.70;99.90;;;;;;5065403;28;20078;-81
2023/03/18 05:01:53;;;;;;;0.93;0.80;;;10.70;99.90;;;;;;5073148;28;20538;-81
2023/03/18 05:04:21;;;;;;;0.90;0.60;;;10.70;99.90;;;;;;5061845;28;20062;-80
2023/03/18 05:06:47;;;;;;;0.98;0.70;;;10.70;99.90;;;;;;5054274;28;20052;-80
2023/03/18 05:09:15;;;;;;;0.85;0.45;;;10.70;99.90;;;;;;5083542;28;20616;-80
2023/03/18 05:11:41;;;;;;;1.58;0.82;;;10.80;99.90;;;;;;5065229;28;20578;-80
2023/03/18 05:14:08;;;;;;;0.68;0.57;;;10.80;99.90;;;;;;5049671;28;20142;-81
2023/03/18 05:16:35;;;;;;;0.63;0.60;;;10.80;99.90;;;;;;5049603;28;20135;-80
2023/03/18 05:19:02;;;;;;;0.70;0.47;;;10.80;99.90;;;;;;5082841;28;20054;-80
2023/03/18 05:21:30;;;;;;;1.67;0.90;;;10.80;99.90;;;;;;5065026;28;20189;-80
2023/03/18 05:23:56;;;;;;;1.08;0.73;;;10.80;99.90;;;;;;5065398;28;20071;-80
2023/03/18 05:26:23;;;;;;;2.17;0.90;;;10.80;99.90;;;;;;5081909;28;20376;-80
2023/03/18 05:28:51;;;;;;;2.13;0.70;;;10.80;99.90;;;;;;5083904;28;20056;-80
2023/03/18 05:31:18;;;;;;;1.40;0.77;;;10.80;99.90;;;;;;5053129;28;20437;-80
2023/03/18 05:33:48;;;;;;;0.73;0.47;;;10.80;99.90;;;;;;5037570;28;20074;-80
2023/03/18 05:36:15;;;;;;;1.10;0.50;;;10.90;99.90;;;;;;5035352;28;20164;-80
2023/03/18 05:38:42;;;;;;;1.25;0.85;;;10.90;99.90;;;;;;5085346;28;20386;-80
2023/03/18 05:41:09;;;;;;;1.05;0.80;;;10.80;99.90;;;;;;5086344;28;20055;-81
2023/03/18 05:43:35;;;;;;;0.57;0.50;;;10.90;99.90;;;;;;5069409;28;20076;-80
2023/03/18 05:46:03;;;;;;;1.00;0.60;;;10.80;99.90;;;;;;5087625;28;20479;-80
2023/03/18 05:48:30;;;;;;;0.65;0.65;;;10.80;99.90;;;;;;5087328;28;20066;-80
2023/03/18 05:50:57;;;;;;;1.00;0.70;;;10.80;99.90;;;;;;5068793;28;20048;-80
2023/03/18 05:53:24;;;;;;;0.93;0.60;;;10.80;99.90;;;;;;5085262;28;20191;-80
2023/03/18 05:55:51;;;;;;;1.00;0.80;;;10.80;99.90;;;;;;5086994;28;20044;-80
2023/03/18 05:58:18;;;;;;;0.93;0.90;;;10.80;99.90;;;;;;5052661;28;20621;-80
2023/03/18 06:00:45;;;;;;;1.30;1.00;;;10.80;99.90;;;;;;5087597;28;20585;-80
2023/03/18 06:03:11;;;;;;;0.82;0.73;;;10.80;99.90;;;;;;5074888;28;20135;-81
2023/03/18 06:05:38;;;;;;;1.52;1.00;;;10.80;99.90;;;;;;5045478;28;20056;-80
2023/03/18 06:08:06;;;;;;;1.92;1.00;;;10.70;99.90;;;;;;5053789;28;20108;-77
2023/03/18 06:10:33;;;;;;;1.33;0.88;;;10.70;99.90;;;;;;5082068;28;20059;-77
2023/03/18 06:13:00;;;;;;;1.20;0.75;;;10.70;99.90;;;;;;5081933;28;20048;-77
2023/03/18 06:15:27;;;;;;;1.40;0.95;;;10.70;99.90;;;;;;5082826;28;20052;-77
2023/03/18 06:17:54;;;;;;;1.38;0.82;;;10.60;99.90;;;;;;5079001;28;20046;-76
2023/03/18 06:20:21;;;;;;;1.95;1.10;;;10.60;99.90;;;;;;5064039;28;20048;-76
2023/03/18 06:22:48;;;;;;;1.25;0.75;;;10.60;99.90;;;;;;5027406;28;20500;-76
2023/03/18 06:25:17;;;;;;;0.80;0.60;;;10.60;99.90;;;;;;5041348;28;20685;-76
2023/03/18 06:27:43;;;;;;;0.90;0.43;;;10.60;99.90;;;;;;5077843;28;20131;-76
2023/03/18 06:30:12;;;;;;;1.63;0.80;;;10.60;99.90;;;;;;5074937;28;20135;-76
2023/03/18 06:32:39;;;;;;;1.58;0.65;;;10.60;99.90;;;;;;5047634;28;20074;-77
2023/03/18 06:35:06;;;;;;;1.42;0.77;;;10.60;99.90;;;;;;5076591;28;20052;-76
2023/03/18 06:37:33;;;;;;;2.00;0.88;;;10.60;99.90;;;;;;5080706;28;20051;-77
2023/03/18 06:40:00;;;;;;;1.92;0.82;;;10.60;99.90;;;;;;5046804;28;20051;-76
2023/03/18 06:42:27;;;;;;;1.33;0.55;;;10.60;99.90;;;;;;5062203;28;20043;-76
2023/03/18 06:44:54;;;;;;;0.85;0.63;;;10.60;99.90;;;;;;5046548;28;20109;-77
2023/03/18 06:47:21;;;;;;;0.95;0.70;;;10.70;99.90;;;;;;5061152;28;20379;-76
2023/03/18 06:49:49;;;;;;;1.40;0.50;;;10.70;99.90;;;;;;5062622;28;20691;-76
2023/03/18 06:52:17;;;;;;;2.63;0.93;;;10.70;99.90;;;;;;5062171;28;20066;-76
2023/03/18 06:54:44;;;;;;;2.35;0.77;;;10.70;99.90;;;;;;5045752;28;20497;-77
2023/03/18 06:57:12;;;;;;;1.35;0.70;;;10.70;99.90;;;;;;5043746;28;20063;-76
2023/03/18 06:59:39;;;;;;;1.45;0.80;;;10.70;99.90;;;;;;5029094;28;20520;-76
2023/03/18 07:02:07;;;;;;;0.93;0.57;;;10.70;99.90;;;;;;5042502;28;20064;-76
2023/03/18 07:04:34;;;;;;;0.65;0.57;;;10.70;99.90;;;;;;5062915;28;21424;-77
2023/03/18 07:07:01;;;;;;;1.17;0.63;;;10.80;99.90;;;;;;5061479;28;20421;-78
2023/03/18 07:09:28;;;;;;;2.13;0.73;;;10.80;99.90;;;;;;5062391;28;20865;-77
2023/03/18 07:11:55;;;;;;;0.65;0.50;;;10.80;99.90;;;;;;5061010;28;20047;-77
2023/03/18 07:14:22;;;;;;;1.02;0.70;;;10.80;99.90;;;;;;5062364;28;20039;-78
2023/03/18 07:16:49;;;;;;;0.75;0.50;;;10.80;99.90;;;;;;5049111;28;20072;-78
2023/03/18 07:19:16;;;;;;;0.70;0.47;;;10.80;99.90;;;;;;5078783;28;20047;-78
2023/03/18 07:21:44;;;;;;;1.50;0.68;;;10.80;99.90;;;;;;5027487;28;20059;-77
2023/03/18 07:24:11;;;;;;;0.73;0.43;;;10.90;99.90;;;;;;5058603;28;20950;-77
2023/03/18 07:26:38;;;;;;;0.95;0.43;;;10.80;99.90;;;;;;5058404;28;20052;-78
2023/03/18 07:29:05;;;;;;;0.90;0.63;;;10.90;99.90;;;;;;5042692;28;20056;-78
2023/03/18 07:31:31;;;;;;;1.35;0.73;;;10.90;99.90;;;;;;5061041;28;20118;-78
2023/03/18 07:33:58;;;;;;;1.10;0.68;;;10.80;99.90;;;;;;5047921;28;20457;-77
2023/03/18 07:36:26;;;;;;;1.60;0.80;;;10.80;99.90;;;;;;5058793;28;20113;-77
2023/03/18 07:38:53;;;;;;;1.08;0.75;;;10.80;99.90;;;;;;5042856;28;20040;-77
2023/03/18 07:41:20;;;;;;;1.60;0.80;;;10.70;99.90;;;;;;5054563;28;20047;-77
2023/03/18 07:43:47;;;;;;;1.52;1.00;;;10.80;99.90;;;;;;5046323;28;20457;-77
2023/03/18 07:46:14;;;;;;;1.30;0.80;;;10.80;99.90;;;;;;5046415;28;20044;-77
2023/03/18 07:48:40;;;;;;;1.48;0.90;;;10.80;99.90;;;;;;5046044;28;20109;-78
2023/03/18 07:51:07;;;;;;;1.20;0.90;;;10.80;99.90;;;;;;5059111;28;20135;-78
2023/03/18 07:53:34;;;;;;;1.80;0.93;;;10.70;99.90;;;;;;5060855;28;20132;-78
2023/03/18 07:56:02;;;;;;;0.80;0.52;;;10.70;99.90;;;;;;5065763;28;20047;-78
2023/03/18 07:58:29;;;;;;;1.00;0.50;;;10.70;99.90;;;;;;5076500;28;20048;-77
2023/03/18 08:00:56;;;;;;;0.93;0.55;;;10.70;99.90;;;;;;5052393;28;20131;-77
2023/03/18 08:03:23;;;;;;;1.58;0.60;;;10.70;99.90;;;;;;5067550;28;20416;-77
2023/03/18 08:05:50;;;;;;;0.50;0.40;;;10.70;99.90;;;;;;5077484;28;20055;-76
2023/03/18 08:08:17;;;;;;;0.95;0.47;;;10.80;99.90;;;;;;5072701;28;20047;-77
2023/03/18 08:10:43;;;;;;;1.02;0.50;;;10.80;99.90;;;;;;5073645;28;20408;-77
2023/03/18 08:13:11;;;;;;;1.05;0.32;;;10.90;99.90;;;;;;5055232;28;20125;-76
2023/03/18 08:15:39;;;;;;;0.60;0.50;;;10.90;99.90;;;;;;5054267;28;20135;-77
2023/03/18 08:18:07;;;;;;;0.40;0.35;;;10.90;99.90;;;;;;5071553;28;20129;-77
2023/03/18 08:20:35;;;;;;;0.73;0.47;;;11.00;99.90;;;;;;5061724;28;20052;-78
2023/03/18 08:23:02;;;;;;;0.43;0.35;;;11.00;99.90;;;;;;5063836;28;20113;-78
2023/03/18 08:25:29;;;;;;;1.65;0.35;;;11.00;99.90;;;;;;5069091;28;20427;-77
2023/03/18 08:27:57;;;;;;;0.35;0.35;;;11.00;99.90;;;;;;5038605;28;20059;-77
2023/03/18 08:30:27;;;;;;;0.60;0.47;;;11.10;99.90;;;;;;5022853;28;20056;-77
2023/03/18 08:32:54;;;;;;;0.52;0.40;;;11.10;99.90;;;;;;5039991;28;20222;-77
2023/03/18 08:35:22;;;;;;;0.52;0.35;;;11.10;99.90;;;;;;5040906;28;20058;-77
2023/03/18 08:37:50;;;;;;;0.25;0.25;;;11.20;99.90;;;;;;5058438;28;20044;-77
2023/03/18 08:40:18;;;;;;;0.45;0.30;;;11.20;99.90;;;;;;5074123;28;20052;-77
2023/03/18 08:42:46;;;;;;;0.47;0.30;;;11.40;99.90;;;;;;5058800;28;20059;-77
2023/03/18 08:45:14;;;;;;;0.20;0.20;;;11.40;99.90;;;;;;5046176;28;20127;-77
2023/03/18 08:47:41;;;;;;;0.68;0.35;;;11.50;99.90;;;;;;5060398;28;20503;-77
2023/03/18 08:50:08;;;;;;;0.47;0.25;;;11.60;99.90;;;;;;5061573;28;20560;-77
2023/03/18 08:52:37;;;;;;;0.95;0.30;;;11.60;99.90;;;;;;5056659;28;20437;-77
2023/03/18 08:55:06;;;;;;;0.68;0.40;;;11.60;99.90;;;;;;5055296;28;20477;-77
2023/03/18 08:57:33;;;;;;;0.90;0.30;;;11.70;99.90;;;;;;5069844;28;20088;-78
2023/03/18 09:00:00;;;;;;;1.10;0.45;;;11.70;99.90;;;;;;5022531;28;20106;-79
2023/03/18 09:02:27;;;;;;;0.40;0.40;;;11.70;99.90;;;;;;5038138;28;20060;-78
2023/03/18 09:04:54;;;;;;;0.30;0.30;;;11.70;99.90;;;;;;5059707;28;20052;-78
2023/03/18 09:07:21;;;;;;;0.90;0.50;;;11.80;99.90;;;;;;5057186;28;20161;-78
2023/03/18 09:09:48;;;;;;;1.27;0.40;;;11.90;99.90;;;;;;5058401;28;20037;-78
2023/03/18 09:12:14;;;;;;;0.55;0.30;;;12.00;99.90;;;;;;5044559;28;20094;-78
2023/03/18 09:14:42;;;;;;;0.82;0.45;;;12.10;99.90;;;;;;5062377;28;20079;-78
2023/03/18 09:17:09;;;;;;;0.57;0.45;;;12.20;99.90;;;;;;5043362;28;20044;-78
2023/03/18 09:19:37;;;;;;;0.60;0.35;;;12.20;99.90;;;;;;5052184;28;20237;-78
2023/03/18 09:22:04;;;;;;;0.77;0.63;;;12.30;99.90;;;;;;5060809;28;20452;-78
2023/03/18 09:24:30;;;;;;;0.47;0.47;;;12.30;99.90;;;;;;5061693;28;20044;-78
2023/03/18 09:26:58;;;;;;;0.88;0.40;;;12.20;99.90;;;;;;5060819;28;20063;-90
2023/03/18 09:29:26;;;;;;;0.50;0.40;;;12.20;99.90;;;;;;5029483;28;20465;-78
2023/03/18 09:31:53;;;;;;;0.70;0.60;;;12.20;99.90;;;;;;5059755;28;20559;-78
2023/03/18 09:34:20;;;;;;;0.30;0.30;;;12.20;99.90;;;;;;5057967;28;20048;-78
2023/03/18 09:36:49;;;;;;;0.50;0.50;;;12.20;99.90;;;;;;5059552;28;20115;-78
2023/03/18 09:39:17;;;;;;;1.33;0.47;;;12.20;99.90;;;;;;5061307;28;20046;-78
2023/03/18 09:42:09;;;;;;;0.32;0.32;;;12.30;99.90;;;;;;5059740;28;20037;-78
2023/03/18 09:44:36;;;;;;;0.40;0.40;;;12.30;99.90;;;;;;5059272;28;20476;-78
2023/03/18 09:47:34;;;;;;;0.30;0.30;;;12.40;99.90;;;;;;5027971;28;20048;-78
2023/03/18 09:50:15;;;;;;;0.40;0.40;;;12.40;99.90;;;;;;5056552;28;20056;-77
2023/03/18 09:52:58;;;;;;;0.35;0.35;;;12.30;99.90;;;;;;5046061;28;20412;-78
2023/03/18 09:55:49;;;;;;;0.60;0.43;;;12.30;99.90;;;;;;5005435;28;20049;-77
2023/03/18 09:58:50;;;;;;;0.73;0.50;;;12.30;99.90;;;;;;5044495;28;20044;-78
2023/03/18 10:01:17;;;;;;;0.52;0.45;;;12.20;99.90;;;;;;5053921;28;20059;-77
2023/03/18 10:03:47;;;;;;;1.20;0.50;;;12.30;99.90;;;;;;5018900;28;20049;-77
2023/03/18 10:06:18;;;;;;;0.68;0.40;;;12.30;99.90;;;;;;5037818;28;20076;-78
2023/03/18 10:09:13;;;;;;;0.30;0.30;;;12.30;99.90;;;;;;5046025;28;20049;-78
2023/03/18 10:11:43;;;;;;;0.77;0.55;;;12.40;99.90;;;;;;4995409;28;20076;-77
2023/03/18 10:14:19;;;;;;;0.35;0.35;;;12.50;99.90;;;;;;5034229;28;20234;-77
2023/03/18 10:16:52;;;;;;;0.28;0.28;;;12.50;99.90;;;;;;5029075;28;20100;-77
2023/03/18 10:19:19;;;;;;;1.00;0.50;;;12.50;99.90;;;;;;5036470;28;20049;-77
2023/03/18 10:21:54;;;;;;;0.30;0.30;;;12.50;99.90;;;;;;5036949;28;20044;-77
2023/03/18 10:24:28;;;;;;;0.35;0.30;;;12.50;99.90;;;;;;5033669;28;20127;-77
2023/03/18 10:26:57;;;;;;;;;;;12.50;99.90;;;;;;5047575;28;20114;-77
2023/03/18 10:29:27;;;;;;;0.77;0.73;;;12.60;99.90;;;;;;5057608;28;20384;-77
2023/03/18 10:31:57;;;;;;;0.55;0.30;;;12.60;99.90;;;;;;5039776;28;20132;-77
2023/03/18 10:34:45;;;;;;;0.30;0.30;;;12.60;99.90;;;;;;5034445;28;20053;-77
2023/03/18 10:37:32;;;;;;;0.68;0.40;;;12.80;99.90;;;;;;5022169;28;20524;-83
2023/03/18 10:39:59;;;;;;;0.25;0.25;;;12.80;99.90;;;;;;5024217;28;20500;-80
2023/03/18 10:42:27;;;;;;;0.40;0.40;;;12.80;99.90;;;;;;5006859;28;20057;-78
2023/03/18 10:44:55;;;;;;;0.30;0.30;;;12.70;99.90;;;;;;5009523;28;20256;-78
2023/03/18 10:47:26;;;;;;;0.30;0.30;;;12.80;99.90;;;;;;5034760;28;20685;-78
2023/03/18 10:50:05;;;;;;;0.28;0.25;;;12.90;99.90;;;;;;5032466;28;20056;-78
2023/03/18 10:52:39;;;;;;;0.20;0.20;;;12.80;99.90;;;;;;5026250;28;20148;-77
2023/03/18 10:55:15;;;;;;;0.35;0.35;;;12.80;99.90;;;;;;5040166;28;20075;-77
2023/03/18 10:57:41;;;;;;;0.30;0.30;;;12.90;99.90;;;;;;5039695;28;20409;-78
2023/03/18 11:00:28;;;;;;;1.63;0.60;;;12.90;99.90;;;;;;5056463;28;20105;-79
2023/03/18 11:02:55;;;;;;;0.30;0.30;;;12.90;99.90;;;;;;5039112;28;20053;-78
2023/03/18 11:05:25;;;;;;;0.30;0.30;;;12.90;99.90;;;;;;5024167;28;20346;-77
2023/03/18 11:08:00;;;;;;;0.30;0.30;;;13.10;99.90;;;;;;5037279;28;20052;-78
2023/03/18 11:10:30;;;;;;;0.30;0.20;;;13.30;99.90;;;;;;5051122;28;20052;-85
2023/03/18 11:13:05;;;;;;;0.30;0.30;;;13.40;99.90;;;;;;5022019;28;20047;-77
2023/03/18 11:15:39;;;;;;;0.30;0.30;;;13.60;99.90;;;;;;5052023;28;20048;-78
2023/03/18 11:18:05;;;;;;;0.37;0.23;;;13.70;99.90;;;;;;5054804;28;20064;-77
2023/03/18 11:20:46;;;;;;;0.10;0.10;;;13.70;99.90;;;;;;5020854;28;20328;-78
2023/03/18 11:23:19;;;;;;;0.17;0.17;;;13.80;99.90;;;;;;5037021;28;20145;-77
2023/03/18 11:25:47;;;;;;;0.17;0.17;;;14.00;99.90;;;;;;5020666;28;20149;-78
2023/03/18 11:28:32;;;;;;;0.20;0.20;;;14.10;99.90;;;;;;5020611;28;20135;-78
2023/03/18 11:31:00;;;;;;;0.30;0.30;;;14.20;99.90;;;;;;5053443;28;20056;-78
2023/03/18 11:33:32;;;;;;;0.20;0.20;;;14.30;99.90;;;;;;5036453;28;20051;-78
2023/03/18 11:36:08;;;;;;;0.38;0.25;;;14.20;99.90;;;;;;5022062;28;20132;-78
2023/03/18 11:38:36;;;;;;;0.20;0.20;;;14.00;99.90;;;;;;5050373;28;20075;-78
2023/03/18 11:41:17;;;;;;;0.20;0.20;;;13.90;99.90;;;;;;5019746;28;20124;-78
2023/03/18 11:44:04;;;;;;;0.30;0.30;;;14.00;99.90;;;;;;5022784;28;20049;-78
2023/03/18 11:46:38;;;;;;;0.10;0.10;;;13.90;99.90;;;;;;5053008;28;20209;-78
2023/03/18 11:49:05;;;;;;;0.55;0.30;;;14.10;99.90;;;;;;5054026;28;20517;-78
2023/03/18 11:51:38;;;;;;;0.22;0.22;;;14.30;99.90;;;;;;5050473;28;20171;-78
2023/03/18 11:54:26;;;;;;;0.28;0.28;;;14.50;99.90;;;;;;5060429;28;20135;-78
2023/03/18 11:57:07;;;;;;;0.20;0.20;;;14.70;99.90;;;;;;5048035;28;20076;-76
2023/03/18 11:59:43;;;;;;;0.30;0.20;;;15.10;99.90;;;;;;5031019;28;20391;-77
2023/03/18 12:02:38;;;;;;;0.20;0.20;;;15.30;99.90;;;;;;5061267;28;20056;-77
2023/03/18 12:05:27;;;;;;;0.20;0.20;;;15.20;99.90;;;;;;5051857;28;20143;-77
2023/03/18 12:07:58;;;;;;;0.22;0.22;;;15.00;99.90;;;;;;5052070;28;20053;-77
2023/03/18 12:10:33;;;;;;;0.28;0.28;;;15.00;99.90;;;;;;5055630;28;20191;-87
2023/03/18 12:13:15;;;;;;;0.20;0.20;;;15.00;99.90;;;;;;5054680;28;20107;-81
2023/03/18 12:15:48;;;;;;;0.20;0.20;;;14.80;99.90;;;;;;5038577;28;20056;-82
2023/03/18 12:18:19;;;;;;;0.17;0.17;;;14.80;99.90;;;;;;5035490;28;20409;-81
2023/03/18 12:20:49;;;;;;;0.20;0.20;;;14.80;99.90;;;;;;5031424;28;20059;-82
2023/03/18 12:23:46;;;;;;;0.10;0.10;;;14.90;99.90;;;;;;5050823;28;20060;-81
2023/03/18 12:26:34;;;;;;;0.52;0.35;;;15.10;99.90;;;;;;5043609;28;20045;-81
2023/03/18 12:29:27;;;;;;;0.17;0.13;;;15.20;99.90;;;;;;5040419;28;20055;-81
2023/03/18 12:32:27;;;;;;;0.10;0.10;;;15.30;99.90;;;;;;5044169;28;20044;-80
2023/03/18 12:34:54;;;;;;;0.10;0.10;;;15.50;99.90;;;;;;5049526;28;20422;-80
2023/03/18 12:37:30;;;;;;;0.35;0.20;;;15.60;99.90;;;;;;5054116;28;20510;-81
2023/03/18 12:40:11;;;;;;;0.30;0.30;;;15.70;99.90;;;;;;5056094;28;20055;-85
2023/03/18 12:42:59;;;;;;;0.75;0.40;;;15.70;99.90;;;;;;5053428;28;20102;-84
2023/03/18 12:45:33;;;;;;;0.20;0.20;;;15.50;99.90;;;;;;5047768;28;20500;-83
2023/03/18 12:48:04;;;;;;;0.32;0.20;;;15.30;99.90;;;;;;5051733;28;20082;-82
2023/03/18 12:50:57;;;;;;;0.30;0.22;;;15.50;99.90;;;;;;5040960;28;20084;-83
2023/03/18 12:53:35;;;;;;;0.25;0.20;;;15.60;99.90;;;;;;5055791;28;20052;-82
2023/03/18 12:56:11;;;;;;;0.25;0.25;;;15.80;99.90;;;;;;5028388;28;20419;-84
2023/03/18 12:58:41;;;;;;;0.55;0.40;;;16.00;99.90;;;;;;5059702;28;20059;-84
2023/03/18 13:01:09;;;;;;;0.20;0.20;;;16.10;99.90;;;;;;5058302;28;20060;-82
2023/03/18 13:03:39;;;;;;;0.40;0.40;;;16.50;99.90;;;;;;5057920;28;20070;-86